createdAt,value
2018-02-25T00:01:38.411Z,81.40
2018-02-25T00:04:04.845Z,81.50
2018-02-25T00:06:31.411Z,81.00
2018-02-25T00:08:57.830Z,81.40
2018-02-25T00:11:24.322Z,80.90
2018-02-25T00:13:51.496Z,80.90
2018-02-25T00:16:17.975Z,80.80
2018-02-25T00:18:44.466Z,80.80
2018-02-25T00:21:11.001Z,80.60
2018-02-25T00:23:37.439Z,80.60
2018-02-25T00:26:03.932Z,80.70
2018-02-25T00:28:31.255Z,80.60
2018-02-25T00:30:57.690Z,80.60
2018-02-25T00:33:24.562Z,80.30
2018-02-25T00:35:51.079Z,81.00
2018-02-25T00:38:17.520Z,81.10
2018-02-25T00:40:44.204Z,80.80
2018-02-25T00:43:10.649Z,81.10
2018-02-25T00:45:37.061Z,81.40
2018-02-25T00:48:04.272Z,81.20
2018-02-25T00:50:30.848Z,81.10
2018-02-25T00:52:57.993Z,81.10
2018-02-25T00:55:25.206Z,81.20
2018-02-25T00:57:51.577Z,81.20
2018-02-25T01:00:18.793Z,81.60
2018-02-25T01:02:45.717Z,81.60
2018-02-25T01:05:12.115Z,81.70
2018-02-25T01:07:39.288Z,81.50
2018-02-25T01:10:06.046Z,81.50
2018-02-25T01:12:32.471Z,81.30
2018-02-25T01:14:58.927Z,81.70
2018-02-25T01:17:25.686Z,81.50
2018-02-25T01:19:52.094Z,82.10
2018-02-25T01:22:18.532Z,82.40
2018-02-25T01:24:45.308Z,82.70
2018-02-25T01:27:12.482Z,82.30
2018-02-25T01:29:38.905Z,82.30
2018-02-25T01:32:05.388Z,82.40
2018-02-25T01:34:31.922Z,82.40
2018-02-25T01:36:58.364Z,82.70
2018-02-25T01:39:24.889Z,82.20
2018-02-25T01:41:51.293Z,83.10
2018-02-25T01:44:17.736Z,82.60
2018-02-25T01:46:44.268Z,82.70
2018-02-25T01:49:10.673Z,83.10
2018-02-25T01:51:37.849Z,82.80
2018-02-25T01:54:04.318Z,82.80
2018-02-25T01:56:30.755Z,82.70
2018-02-25T01:58:57.158Z,83.40
2018-02-25T02:01:23.592Z,83.50
2018-02-25T02:03:50.033Z,83.00
2018-02-25T02:06:16.987Z,83.30
2018-02-25T02:08:43.484Z,83.20
2018-02-25T02:11:10.054Z,83.20
2018-02-25T02:13:36.611Z,83.30
2018-02-25T02:16:04.505Z,83.50
2018-02-25T02:18:30.947Z,83.40
2018-02-25T02:20:58.109Z,83.20
2018-02-25T02:23:25.311Z,83.20
2018-02-25T02:25:51.756Z,83.10
2018-02-25T02:28:18.167Z,83.30
2018-02-25T02:30:44.952Z,83.30
2018-02-25T02:33:11.390Z,83.40
2018-02-25T02:35:38.512Z,83.30
2018-02-25T02:38:04.955Z,83.20
2018-02-25T02:40:31.483Z,83.30
2018-02-25T02:42:58.724Z,83.00
2018-02-25T02:45:25.202Z,82.90
2018-02-25T02:47:51.736Z,82.80
2018-02-25T02:50:18.146Z,82.70
2018-02-25T02:52:45.655Z,82.20
2018-02-25T02:55:12.095Z,82.20
2018-02-25T02:57:38.574Z,82.20
2018-02-25T03:00:05.244Z,82.40
2018-02-25T03:02:31.642Z,82.40
2018-02-25T03:04:58.032Z,82.40
2018-02-25T03:07:24.684Z,82.50
2018-02-25T03:09:51.090Z,82.20
2018-02-25T03:12:17.514Z,82.30
2018-02-25T03:14:44.842Z,82.40
2018-02-25T03:17:11.343Z,82.40
2018-02-25T03:19:37.730Z,82.50
2018-02-25T03:22:04.285Z,82.20
2018-02-25T03:24:30.733Z,82.50
2018-02-25T03:26:57.150Z,82.60
2018-02-25T03:29:24.538Z,82.60
2018-02-25T03:31:51.028Z,82.50
2018-02-25T03:34:18.241Z,82.60
2018-02-25T03:36:45.134Z,82.50
2018-02-25T03:39:12.291Z,82.70
2018-02-25T03:41:38.675Z,82.80
2018-02-25T03:44:05.129Z,82.40
2018-02-25T03:46:32.322Z,82.50
2018-02-25T03:48:58.726Z,82.50
2018-02-25T03:51:26.176Z,81.80
2018-02-25T03:53:53.318Z,81.90
2018-02-25T03:56:20.503Z,81.60
2018-02-25T03:58:46.959Z,81.60
2018-02-25T04:01:13.352Z,81.40
2018-02-25T04:03:40.511Z,81.50
2018-02-25T04:06:06.954Z,81.40
2018-02-25T04:08:34.367Z,81.50
2018-02-25T04:11:00.833Z,81.70
2018-02-25T04:13:27.342Z,82.00
2018-02-25T04:15:53.749Z,82.10
2018-02-25T04:18:21.013Z,82.30
2018-02-25T04:20:48.171Z,82.40
2018-02-25T04:23:14.540Z,82.40
2018-02-25T04:25:41.476Z,82.30
2018-02-25T04:28:08.631Z,82.60
2018-02-25T04:30:35.030Z,82.40
2018-02-25T04:33:01.528Z,82.50
2018-02-25T04:35:27.973Z,82.70
2018-02-25T04:37:54.494Z,83.00
2018-02-25T04:40:20.982Z,83.20
2018-02-25T04:42:47.575Z,84.30
2018-02-25T04:45:13.955Z,84.70
2018-02-25T04:47:40.396Z,84.60
2018-02-25T04:50:06.833Z,84.20
2018-02-25T04:52:34.048Z,84.40
2018-02-25T04:55:00.780Z,84.20
2018-02-25T04:57:27.977Z,84.80
2018-02-25T04:59:55.140Z,84.60
2018-02-25T05:02:21.583Z,84.50
2018-02-25T05:04:48.012Z,83.90
2018-02-25T05:07:14.895Z,84.80
2018-02-25T05:09:41.331Z,84.70
2018-02-25T05:12:08.545Z,85.40
2018-02-25T05:14:35.087Z,85.40
2018-02-25T05:17:01.508Z,85.70
2018-02-25T05:19:27.946Z,85.50
2018-02-25T05:21:54.407Z,85.80
2018-02-25T05:24:20.897Z,86.10
2018-02-25T05:26:47.301Z,86.10
2018-02-25T05:29:13.772Z,85.60
2018-02-25T05:31:40.985Z,85.90
2018-02-25T05:34:07.446Z,85.90
2018-02-25T05:36:34.914Z,85.90
2018-02-25T05:39:01.354Z,85.70
2018-02-25T05:41:27.821Z,86.00
2018-02-25T05:43:54.666Z,85.70
2018-02-25T05:46:21.100Z,86.10
2018-02-25T05:48:47.520Z,85.60
2018-02-25T05:53:46.410Z,86.20
2018-02-25T05:56:12.819Z,86.10
2018-02-25T05:58:40.003Z,86.20
2018-02-25T06:01:06.423Z,86.20
2018-02-25T06:03:33.591Z,86.60
2018-02-25T06:06:00.045Z,86.50
2018-02-25T06:08:26.487Z,86.40
2018-02-25T06:10:52.914Z,86.40
2018-02-25T06:13:19.662Z,86.50
2018-02-25T06:15:46.089Z,86.40
2018-02-25T06:18:12.524Z,86.40
2018-02-25T06:20:39.091Z,86.50
2018-02-25T06:23:05.576Z,86.50
2018-02-25T06:25:32.750Z,86.40
2018-02-25T06:27:59.232Z,86.30
2018-02-25T06:30:25.684Z,86.40
2018-02-25T06:32:52.055Z,86.30
2018-02-25T06:35:18.462Z,86.40
2018-02-25T06:37:45.084Z,86.40
2018-02-25T06:40:11.549Z,86.40
2018-02-25T06:42:37.964Z,86.30
2018-02-25T06:45:04.462Z,86.20
2018-02-25T06:47:30.832Z,86.20
2018-02-25T06:49:57.225Z,86.20
2018-02-25T06:52:24.010Z,86.20
2018-02-25T06:54:50.475Z,86.20
2018-02-25T06:57:16.893Z,86.10
2018-02-25T06:59:43.908Z,86.20
2018-02-25T07:02:10.310Z,86.60
2018-02-25T07:04:37.438Z,86.30
2018-02-25T07:07:04.255Z,86.20
2018-02-25T07:09:30.625Z,86.10
2018-02-25T07:11:57.086Z,86.20
2018-02-25T07:14:24.579Z,86.20
2018-02-25T07:16:51.002Z,86.10
2018-02-25T07:19:17.435Z,85.70
2018-02-25T07:21:43.959Z,86.80
2018-02-25T07:24:10.376Z,85.30
2018-02-25T07:26:37.620Z,85.40
2018-02-25T07:29:04.433Z,85.40
2018-02-25T07:31:30.889Z,85.30
2018-02-25T07:33:57.346Z,85.50
2018-02-25T07:36:25.208Z,85.00
2018-02-25T07:38:52.374Z,84.60
2018-02-25T07:41:18.786Z,84.50
2018-02-25T07:43:45.861Z,84.70
2018-02-25T07:46:12.265Z,84.60
2018-02-25T07:48:39.420Z,85.00
2018-02-25T07:51:05.901Z,84.90
2018-02-25T07:53:32.280Z,84.60
2018-02-25T07:55:59.437Z,84.20
2018-02-25T07:58:25.947Z,84.20
2018-02-25T08:00:52.419Z,84.00
2018-02-25T08:03:18.875Z,83.90
2018-02-25T08:05:45.422Z,83.70
2018-02-25T08:08:11.851Z,84.20
2018-02-25T08:10:38.290Z,83.50
2018-02-25T08:13:05.053Z,83.40
2018-02-25T08:15:31.480Z,83.50
2018-02-25T08:17:57.885Z,83.50
2018-02-25T08:20:24.386Z,82.80
2018-02-25T08:22:51.690Z,83.00
2018-02-25T08:25:18.179Z,83.00
2018-02-25T08:27:45.528Z,82.50
2018-02-25T08:30:11.912Z,82.40
2018-02-25T08:32:39.817Z,82.50
2018-02-25T08:35:06.273Z,82.40
2018-02-25T08:37:33.422Z,82.00
2018-02-25T08:39:59.849Z,82.00
2018-02-25T08:42:26.547Z,82.20
2018-02-25T08:44:52.976Z,81.70
2018-02-25T08:47:19.423Z,82.00
2018-02-25T08:49:45.941Z,81.50
2018-02-25T08:52:12.374Z,81.80
2018-02-25T08:54:38.790Z,82.10
2018-02-25T08:57:05.263Z,81.80
2018-02-25T08:59:31.668Z,81.10
2018-02-25T09:01:58.140Z,81.70
2018-02-25T09:04:24.597Z,80.70
2018-02-25T09:06:52.009Z,81.10
2018-02-25T09:09:18.488Z,81.00
2018-02-25T09:11:45.026Z,80.80
2018-02-25T09:14:12.609Z,80.60
2018-02-25T09:16:39.019Z,80.50
2018-02-25T09:19:06.292Z,80.30
2018-02-25T09:21:32.700Z,80.20
2018-02-25T09:23:59.916Z,80.10
2018-02-25T09:26:26.482Z,80.00
2018-02-25T09:28:52.952Z,80.50
2018-02-25T09:31:19.368Z,79.80
2018-02-25T09:33:46.604Z,79.60
2018-02-25T09:36:13.763Z,79.40
2018-02-25T09:38:40.918Z,79.00
2018-02-25T09:41:07.392Z,78.90
2018-02-25T09:43:33.867Z,78.60
2018-02-25T09:46:00.303Z,78.50
2018-02-25T09:48:26.816Z,78.00
2018-02-25T09:50:53.330Z,77.70
2018-02-25T09:53:19.796Z,77.10
2018-02-25T09:55:46.858Z,77.10
2018-02-25T09:58:14.047Z,76.50
2018-02-25T10:00:40.455Z,76.50
2018-02-25T10:03:07.138Z,76.30
2018-02-25T10:05:33.630Z,76.00
2018-02-25T10:08:00.894Z,75.40
2018-02-25T10:10:27.380Z,75.40
2018-02-25T10:12:53.785Z,74.50
2018-02-25T10:15:20.251Z,74.50
2018-02-25T10:17:46.744Z,73.90
2018-02-25T10:20:13.342Z,72.90
2018-02-25T10:22:39.760Z,74.30
2018-02-25T10:25:06.851Z,73.20
2018-02-25T10:27:33.483Z,73.00
2018-02-25T10:30:00.782Z,72.50
2018-02-25T10:32:27.626Z,72.60
2018-02-25T10:34:54.085Z,72.60
2018-02-25T10:37:20.561Z,71.10
2018-02-25T10:39:47.134Z,71.00
2018-02-25T10:42:13.695Z,70.80
2018-02-25T10:44:40.126Z,69.80
2018-02-25T10:47:07.377Z,68.40
2018-02-25T10:49:34.646Z,67.50
2018-02-25T10:52:01.051Z,67.50
2018-02-25T10:54:27.571Z,68.90
2018-02-25T10:56:53.961Z,68.80
2018-02-25T11:01:53.611Z,68.30
2018-02-25T11:04:20.090Z,67.90
2018-02-25T11:06:46.545Z,67.90
2018-02-25T11:09:13.446Z,67.40
2018-02-25T11:11:39.896Z,67.00
2018-02-25T11:14:06.331Z,67.40
2018-02-25T11:16:32.976Z,66.60
2018-02-25T11:18:59.434Z,65.80
2018-02-25T11:21:25.969Z,66.10
2018-02-25T11:23:52.361Z,66.10
2018-02-25T11:26:18.828Z,66.40
2018-02-25T11:28:45.594Z,67.10
2018-02-25T11:31:12.745Z,68.20
2018-02-25T11:33:39.131Z,68.10
2018-02-25T11:36:05.628Z,68.20
2018-02-25T11:38:32.092Z,68.20
2018-02-25T11:40:58.548Z,69.10
2018-02-25T11:43:25.318Z,69.20
2018-02-25T11:45:52.443Z,69.10
2018-02-25T11:48:18.850Z,69.10
2018-02-25T11:50:45.696Z,69.20
2018-02-25T11:53:12.286Z,69.50
2018-02-25T11:55:39.524Z,70.50
2018-02-25T11:58:06.104Z,70.40
2018-02-25T12:00:32.618Z,71.20
2018-02-25T12:03:00.618Z,71.50
2018-02-25T12:05:27.179Z,70.90
2018-02-25T12:07:53.581Z,71.30
2018-02-25T12:10:20.130Z,71.60
2018-02-25T12:12:46.568Z,71.20
2018-02-25T12:15:13.225Z,71.00
2018-02-25T12:17:39.682Z,70.90
2018-02-25T12:20:06.929Z,72.10
2018-02-25T12:22:33.801Z,72.10
2018-02-25T12:25:00.188Z,71.90
2018-02-25T12:27:27.407Z,71.30
2018-02-25T12:29:53.882Z,71.70
2018-02-25T12:32:20.374Z,73.00
2018-02-25T12:34:46.806Z,74.50
2018-02-25T12:37:13.323Z,76.70
2018-02-25T12:39:39.710Z,77.90
2018-02-25T12:42:06.252Z,79.80
2018-02-25T12:44:33.478Z,81.70
2018-02-25T12:46:59.878Z,81.70
2018-02-25T12:49:26.695Z,83.40
2018-02-25T12:51:53.942Z,83.50
2018-02-25T12:54:21.184Z,82.00
2018-02-25T12:56:48.033Z,81.80
2018-02-25T12:59:14.456Z,82.00
2018-02-25T13:01:40.877Z,83.10
2018-02-25T13:04:08.130Z,81.80
2018-02-25T13:06:34.561Z,81.70
2018-02-25T13:09:01.819Z,80.50
2018-02-25T13:11:28.798Z,80.40
2018-02-25T13:13:55.960Z,81.80
2018-02-25T13:16:23.144Z,83.00
2018-02-25T13:18:49.576Z,82.90
2018-02-25T13:21:16.011Z,83.60
2018-02-25T13:23:42.430Z,82.60
2018-02-25T13:26:09.023Z,82.60
2018-02-25T13:28:35.523Z,83.40
2018-02-25T13:31:01.953Z,83.00
2018-02-25T13:33:28.425Z,83.50
2018-02-25T13:35:55.595Z,82.70
2018-02-25T13:38:22.781Z,82.50
2018-02-25T13:40:49.337Z,82.50
2018-02-25T13:43:15.889Z,83.00
2018-02-25T13:45:43.690Z,83.00
2018-02-25T13:48:10.113Z,82.70
2018-02-25T13:50:36.541Z,83.10
2018-02-25T13:53:03.334Z,83.70
2018-02-25T13:55:30.115Z,82.90
2018-02-25T13:57:56.514Z,82.50
2018-02-25T14:00:22.917Z,83.50
2018-02-25T14:02:49.534Z,82.90
2018-02-25T14:05:16.739Z,83.60
2018-02-25T14:07:43.126Z,83.50
2018-02-25T14:10:09.944Z,83.70
2018-02-25T14:12:37.825Z,83.80
2018-02-25T14:15:04.305Z,83.70
2018-02-25T14:17:31.566Z,83.70
2018-02-25T14:19:58.038Z,84.10
2018-02-25T14:22:24.496Z,83.60
2018-02-25T14:24:51.833Z,83.10
2018-02-25T14:27:19.139Z,82.00
2018-02-25T14:29:45.677Z,82.00
2018-02-25T14:32:12.163Z,82.70
2018-02-25T14:34:39.323Z,82.90
2018-02-25T14:37:05.756Z,82.90
2018-02-25T14:39:32.983Z,80.50
2018-02-25T14:41:59.417Z,80.50
2018-02-25T14:44:25.913Z,80.20
2018-02-25T14:46:52.655Z,80.20
2018-02-25T14:49:19.115Z,80.20
2018-02-25T14:51:45.593Z,79.40
2018-02-25T14:54:12.912Z,78.60
2018-02-25T14:56:39.293Z,78.50
2018-02-25T14:59:05.737Z,78.50
2018-02-25T15:01:32.186Z,78.50
2018-02-25T15:03:58.564Z,78.40
2018-02-25T15:06:24.982Z,78.90
2018-02-25T15:08:51.473Z,78.10
2018-02-25T15:11:17.894Z,78.40
2018-02-25T15:13:44.364Z,77.70
2018-02-25T15:16:10.789Z,77.70
2018-02-25T15:18:37.209Z,78.10
2018-02-25T15:21:03.657Z,79.40
2018-02-25T15:23:30.484Z,78.50
2018-02-25T15:25:56.885Z,78.20
2018-02-25T15:28:23.324Z,78.80
2018-02-25T15:30:50.086Z,78.70
2018-02-25T15:33:16.461Z,79.40
2018-02-25T15:35:42.865Z,79.40
2018-02-25T15:38:09.376Z,79.30
2018-02-25T15:40:35.839Z,80.00
2018-02-25T15:43:02.260Z,80.70
2018-02-25T15:45:29.552Z,81.80
2018-02-25T15:47:55.983Z,81.90
2018-02-25T15:50:22.439Z,82.20
2018-02-25T15:52:49.918Z,83.80
2018-02-25T15:55:16.354Z,83.70
2018-02-25T15:57:42.804Z,84.10
2018-02-25T16:00:09.249Z,84.30
2018-02-25T16:02:35.671Z,84.30
2018-02-25T16:05:02.122Z,85.10
2018-02-25T16:07:28.568Z,85.60
2018-02-25T16:09:54.979Z,85.90
2018-02-25T16:12:21.456Z,85.40
2018-02-25T16:14:48.102Z,86.10
2018-02-25T16:17:14.509Z,86.70
2018-02-25T16:19:40.980Z,86.60
2018-02-25T16:22:07.388Z,86.30
2018-02-25T16:24:33.793Z,86.20
2018-02-25T16:27:00.456Z,86.00
2018-02-25T16:29:26.895Z,86.30
2018-02-25T16:31:53.293Z,86.00
2018-02-25T16:34:19.739Z,86.20
2018-02-25T16:36:46.167Z,86.00
2018-02-25T16:39:12.594Z,86.10
2018-02-25T16:41:39.002Z,85.60
2018-02-25T16:44:05.411Z,86.10
2018-02-25T16:46:32.868Z,85.60
2018-02-25T16:49:00.075Z,85.40
2018-02-25T16:51:26.554Z,85.30
2018-02-25T16:53:53.731Z,84.50
2018-02-25T16:56:20.215Z,84.40
2018-02-25T16:58:46.656Z,84.50
2018-02-25T17:01:13.131Z,84.70
2018-02-25T17:03:39.600Z,84.50
2018-02-25T17:06:06.381Z,83.50
2018-02-25T17:08:32.918Z,83.40
2018-02-25T17:10:59.406Z,83.00
2018-02-25T17:13:25.812Z,83.00
2018-02-25T17:15:52.296Z,81.70
2018-02-25T17:18:18.774Z,80.70
2018-02-25T17:20:45.210Z,81.20
2018-02-25T17:23:11.767Z,81.10
2018-02-25T17:25:38.187Z,80.40
2018-02-25T17:28:04.707Z,80.50
2018-02-25T17:30:31.163Z,81.10
2018-02-25T17:32:57.616Z,81.90
2018-02-25T17:35:24.088Z,82.60
2018-02-25T17:37:50.655Z,83.10
2018-02-25T17:40:17.265Z,82.90
2018-02-25T17:42:43.772Z,83.00
2018-02-25T17:45:10.378Z,82.80
2018-02-25T17:47:36.804Z,83.00
2018-02-25T17:50:03.996Z,83.30
2018-02-25T17:52:30.566Z,83.20
2018-02-25T17:54:56.987Z,83.10
2018-02-25T17:57:23.459Z,84.00
2018-02-25T17:59:49.986Z,83.20
2018-02-25T18:02:17.204Z,82.10
2018-02-25T18:04:43.629Z,82.10
2018-02-25T18:07:10.126Z,82.40
2018-02-25T18:09:37.519Z,84.00
2018-02-25T18:12:04.060Z,83.80
2018-02-25T18:14:31.322Z,84.20
2018-02-25T18:16:57.794Z,84.20
2018-02-25T18:19:24.196Z,84.60
2018-02-25T18:21:50.642Z,85.00
2018-02-25T18:24:17.225Z,85.10
2018-02-25T18:26:43.734Z,86.10
2018-02-25T18:29:10.226Z,86.10
2018-02-25T18:31:36.741Z,86.10
2018-02-25T18:34:03.219Z,85.90
2018-02-25T18:36:29.681Z,86.10
2018-02-25T18:38:56.164Z,85.80
2018-02-25T18:41:22.586Z,86.00
2018-02-25T18:43:49.116Z,85.80
2018-02-25T18:46:15.576Z,86.50
2018-02-25T18:48:42.021Z,86.50
2018-02-25T18:51:09.106Z,86.60
2018-02-25T18:53:35.576Z,86.60
2018-02-25T18:56:02.768Z,86.50
2018-02-25T18:58:30.275Z,86.20
2018-02-25T19:00:56.812Z,86.20
2018-02-25T19:03:24.028Z,87.00
2018-02-25T19:05:50.531Z,87.00
2018-02-25T19:08:16.978Z,86.90
2018-02-25T19:10:43.441Z,87.00
2018-02-25T19:13:09.898Z,87.20
2018-02-25T19:15:36.438Z,87.30
2018-02-25T19:18:02.980Z,87.40
2018-02-25T19:20:29.437Z,87.80
2018-02-25T19:22:55.870Z,87.50
2018-02-25T19:25:23.053Z,87.60
2018-02-25T19:27:49.488Z,87.60
2018-02-25T19:30:16.780Z,87.40
2018-02-25T19:32:43.225Z,87.40
2018-02-25T19:35:09.711Z,88.00
2018-02-25T19:37:42.233Z,87.30
2018-02-25T19:40:08.764Z,88.20
2018-02-25T19:42:35.177Z,87.90
2018-02-25T19:45:01.640Z,88.00
2018-02-25T19:47:28.120Z,88.30
2018-02-25T19:49:54.564Z,88.80
2018-02-25T19:52:20.972Z,88.30
2018-02-25T19:54:47.430Z,88.90
2018-02-25T19:57:13.783Z,89.40
2018-02-25T19:59:40.335Z,89.90
2018-02-25T20:02:07.296Z,89.30
2018-02-25T20:04:33.732Z,90.20
2018-02-25T20:07:00.234Z,89.40
2018-02-25T20:09:27.863Z,89.20
2018-02-25T20:11:54.384Z,89.10
2018-02-25T20:14:21.594Z,89.60
2018-02-25T20:16:48.082Z,89.50
2018-02-25T20:19:15.463Z,89.50
2018-02-25T20:21:41.914Z,89.50
2018-02-25T20:24:08.458Z,89.50
2018-02-25T20:26:34.903Z,89.70
2018-02-25T20:29:02.249Z,89.50
2018-02-25T20:31:28.706Z,89.50
2018-02-25T20:33:55.105Z,89.90
2018-02-25T20:36:21.510Z,89.90
2018-02-25T20:38:47.972Z,89.80
2018-02-25T20:41:14.416Z,89.80
2018-02-25T20:43:40.924Z,90.00
2018-02-25T20:46:07.412Z,90.20
2018-02-25T20:48:33.937Z,90.30
2018-02-25T20:51:01.146Z,90.70
2018-02-25T20:53:27.588Z,90.70
2018-02-25T20:55:55.145Z,90.70
2018-02-25T20:58:23.956Z,90.90
2018-02-25T21:00:50.495Z,90.90
2018-02-25T21:03:21.597Z,91.10
2018-02-25T21:05:48.596Z,91.40
2018-02-25T21:08:15.095Z,91.60
2018-02-25T21:10:43.288Z,91.60
2018-02-25T21:13:17.561Z,91.40
2018-02-25T21:15:46.911Z,91.50
2018-02-25T21:18:15.660Z,91.60
2018-02-25T21:20:45.111Z,91.60
2018-02-25T21:23:13.646Z,91.50
2018-02-25T21:25:40.304Z,91.10
2018-02-25T21:28:06.736Z,91.20
2018-02-25T21:30:33.185Z,91.20
2018-02-25T21:32:59.710Z,90.80
2018-02-25T21:35:26.169Z,90.70
2018-02-25T21:37:52.673Z,91.00
2018-02-25T21:40:19.225Z,90.70
2018-02-25T21:42:46.401Z,90.70
2018-02-25T21:45:13.547Z,90.70
2018-02-25T21:47:39.998Z,90.60
2018-02-25T21:50:07.120Z,90.80
2018-02-25T21:52:34.301Z,90.70
2018-02-25T21:55:00.729Z,90.70
2018-02-25T21:57:33.112Z,90.60
2018-02-25T22:00:06.524Z,90.50
2018-02-25T22:02:39.189Z,90.50
2018-02-25T22:05:05.621Z,90.00
2018-02-25T22:07:32.189Z,89.90
2018-02-25T22:09:59.512Z,89.70
2018-02-25T22:12:26.104Z,89.50
2018-02-25T22:14:54.832Z,88.90
2018-02-25T22:17:21.285Z,88.80
2018-02-25T22:19:47.972Z,89.00
2018-02-25T22:22:14.433Z,88.50
2018-02-25T22:24:40.925Z,89.30
2018-02-25T22:27:07.394Z,88.30
2018-02-25T22:29:40.673Z,88.20
2018-02-25T22:32:07.384Z,87.70
2018-02-25T22:34:33.799Z,88.40
2018-02-25T22:37:00.201Z,87.20
2018-02-25T22:39:27.012Z,87.00
2018-02-25T22:41:53.484Z,87.20
2018-02-25T22:44:19.994Z,87.00
2018-02-25T22:46:46.416Z,86.80
2018-02-25T22:49:12.853Z,86.50
2018-02-25T22:51:39.240Z,86.10
2018-02-25T22:54:06.494Z,86.80
2018-02-25T22:56:33.140Z,86.70
2018-02-25T22:58:59.746Z,87.00
2018-02-25T23:01:27.259Z,87.20
2018-02-25T23:03:53.657Z,87.10
2018-02-25T23:06:20.170Z,87.50
2018-02-25T23:08:46.787Z,87.60
2018-02-25T23:11:13.231Z,87.70
2018-02-25T23:13:39.688Z,87.70
2018-02-25T23:16:06.458Z,87.40
2018-02-25T23:18:32.971Z,87.50
2018-02-25T23:20:59.437Z,87.40
2018-02-25T23:23:26.311Z,87.80
2018-02-25T23:25:52.686Z,87.50
2018-02-25T23:28:19.836Z,88.50
2018-02-25T23:30:46.280Z,88.50
2018-02-25T23:33:12.691Z,88.30
2018-02-25T23:35:39.090Z,87.70
2018-02-25T23:38:05.578Z,87.20
2018-02-25T23:40:32.796Z,87.50
2018-02-25T23:42:59.389Z,87.40
2018-02-25T23:45:25.843Z,86.70
2018-02-25T23:47:52.244Z,86.80
2018-02-25T23:50:19.384Z,88.20
2018-02-25T23:52:46.580Z,89.00
2018-02-25T23:55:13.148Z,89.00
2018-02-25T23:57:39.706Z,88.60
